Time;durP1;ratioP1;P1;durP2;ratioP2;P2;SDS_P1;SDS_P2;PMS_P1;PMS_P2;Temp;Humidity;BMP_temperature;BMP_pressure;BME280_temperature;BME280_humidity;BME280_pressure;Samples;Min_cycle;Max_cycle;Signal;HPM_P1;HPM_P2
2021/08/20 00:00:18;;;;;;;0.70;0.60;;;25.80;51.40;;;;;;4235790;28;20055;-56
2021/08/20 00:02:20;;;;;;;0.50;0.50;;;25.90;51.60;;;;;;4235639;28;20074;-56
2021/08/20 00:04:23;;;;;;;0.80;0.60;;;25.90;51.60;;;;;;4235393;28;20048;-56
2021/08/20 00:06:25;;;;;;;0.47;0.47;;;25.80;51.60;;;;;;4235574;28;20048;-55
2021/08/20 00:08:27;;;;;;;2.05;0.82;;;25.80;51.60;;;;;;4235514;28;20050;-56
2021/08/20 00:10:29;;;;;;;0.85;0.57;;;25.80;51.90;;;;;;4235382;28;20040;-56
2021/08/20 00:12:31;;;;;;;0.70;0.55;;;25.80;51.80;;;;;;4217613;28;20048;-56
2021/08/20 00:14:33;;;;;;;0.77;0.55;;;25.80;51.80;;;;;;4235314;28;20052;-56
2021/08/20 00:16:35;;;;;;;1.08;0.75;;;25.90;51.80;;;;;;4235182;28;20056;-56
2021/08/20 00:18:37;;;;;;;1.75;0.40;;;25.80;51.90;;;;;;4235090;28;20130;-56
2021/08/20 00:20:39;;;;;;;0.40;0.40;;;25.90;52.00;;;;;;4235014;28;20058;-56
2021/08/20 00:22:42;;;;;;;0.20;0.20;;;25.80;51.90;;;;;;4235240;28;20044;-56
2021/08/20 00:24:44;;;;;;;0.47;0.47;;;25.80;51.80;;;;;;4235286;28;20165;-56
2021/08/20 00:26:46;;;;;;;1.55;0.30;;;25.80;51.90;;;;;;4235336;28;20070;-56
2021/08/20 00:28:48;;;;;;;0.30;0.30;;;25.80;51.90;;;;;;4235077;28;20069;-56
2021/08/20 00:30:50;;;;;;;0.30;0.30;;;25.80;51.90;;;;;;4235159;28;20044;-56
2021/08/20 00:32:52;;;;;;;0.63;0.30;;;25.80;51.90;;;;;;4235074;28;20044;-55
2021/08/20 00:34:55;;;;;;;0.40;0.38;;;25.80;51.90;;;;;;4234912;28;20108;-56
2021/08/20 00:36:57;;;;;;;0.30;0.30;;;25.90;51.90;;;;;;4234962;28;20040;-56
2021/08/20 00:39:01;;;;;;;0.30;0.30;;;25.80;51.90;;;;;;4234976;28;20044;-57
2021/08/20 00:41:05;;;;;;;0.38;0.30;;;25.80;51.90;;;;;;4234862;28;20058;-56
2021/08/20 00:43:08;;;;;;;0.20;0.20;;;25.80;52.00;;;;;;4235026;28;20070;-56
2021/08/20 00:45:10;;;;;;;0.35;0.30;;;25.80;51.90;;;;;;4234912;28;20044;-56
2021/08/20 00:47:12;;;;;;;0.20;0.20;;;25.80;52.00;;;;;;4234937;28;20043;-56
2021/08/20 00:49:15;;;;;;;0.30;0.30;;;25.80;52.00;;;;;;4234737;28;20052;-56
2021/08/20 00:51:19;;;;;;;0.20;0.20;;;25.80;52.00;;;;;;4234410;28;20077;-57
2021/08/20 00:53:21;;;;;;;0.20;0.20;;;25.80;52.00;;;;;;4234928;28;20059;-56
2021/08/20 00:55:24;;;;;;;0.20;0.20;;;25.90;52.00;;;;;;4234756;28;20082;-57
2021/08/20 00:57:28;;;;;;;0.20;0.20;;;25.80;51.90;;;;;;4234782;28;20052;-56
2021/08/20 00:59:30;;;;;;;0.20;0.20;;;25.90;52.10;;;;;;4234663;28;20082;-57
2021/08/20 01:01:34;;;;;;;0.30;0.30;;;25.80;51.90;;;;;;4234603;28;20044;-57
2021/08/20 01:03:37;;;;;;;0.20;0.20;;;25.80;52.20;;;;;;4234713;28;20051;-57
2021/08/20 01:05:40;;;;;;;0.10;0.10;;;25.80;52.20;;;;;;4234742;28;20045;-57
2021/08/20 01:07:42;;;;;;;0.10;0.10;;;25.80;52.20;;;;;;4234738;28;20078;-57
2021/08/20 01:09:47;;;;;;;0.30;0.28;;;25.80;52.30;;;;;;4234636;28;20044;-56
2021/08/20 01:11:50;;;;;;;0.10;0.10;;;25.80;52.30;;;;;;4234717;28;20086;-56
2021/08/20 01:13:53;;;;;;;0.10;0.10;;;25.80;52.20;;;;;;4234637;28;20048;-56
2021/08/20 01:15:55;;;;;;;0.20;0.20;;;25.80;52.40;;;;;;4234337;28;20050;-56
2021/08/20 01:17:57;;;;;;;0.63;0.20;;;25.80;52.40;;;;;;4234620;28;20055;-56
2021/08/20 01:20:01;;;;;;;0.10;0.10;;;25.80;52.50;;;;;;4234494;28;20081;-56
2021/08/20 01:22:08;;;;;;;0.10;0.10;;;25.80;52.50;;;;;;4234091;28;20040;-57
2021/08/20 01:24:10;;;;;;;0.10;0.10;;;25.80;52.50;;;;;;4234532;28;20104;-57
2021/08/20 01:26:13;;;;;;;0.13;0.13;;;25.80;52.60;;;;;;4234409;28;20069;-57
2021/08/20 01:28:15;;;;;;;0.20;0.20;;;25.80;52.60;;;;;;4234404;28;20051;-57
2021/08/20 01:30:17;;;;;;;0.20;0.20;;;25.80;52.70;;;;;;4234103;28;20101;-57
2021/08/20 01:32:19;;;;;;;0.20;0.20;;;25.80;52.60;;;;;;4234125;28;20047;-56
2021/08/20 01:34:21;;;;;;;0.10;0.10;;;25.80;52.60;;;;;;4234288;28;20044;-57
2021/08/20 01:36:23;;;;;;;0.65;0.20;;;25.80;52.60;;;;;;4234321;28;20047;-58
2021/08/20 01:38:26;;;;;;;0.20;0.20;;;25.90;52.70;;;;;;4234123;28;20070;-57
2021/08/20 01:40:29;;;;;;;0.10;0.10;;;25.90;52.80;;;;;;4234186;28;20048;-57
2021/08/20 01:42:31;;;;;;;0.30;0.20;;;25.90;52.70;;;;;;4234033;28;20044;-57
2021/08/20 01:44:33;;;;;;;0.60;0.20;;;25.90;52.90;;;;;;4234155;28;20044;-57
2021/08/20 01:46:35;;;;;;;0.63;0.20;;;25.80;52.90;;;;;;4233981;28;20044;-57
2021/08/20 01:48:43;;;;;;;0.10;0.10;;;25.80;53.00;;;;;;4234000;28;20044;-57
2021/08/20 01:50:45;;;;;;;0.10;0.10;;;25.80;53.10;;;;;;4233941;28;20044;-57
2021/08/20 01:52:47;;;;;;;0.10;0.10;;;25.90;53.10;;;;;;4233982;28;20048;-57
2021/08/20 01:54:50;;;;;;;0.20;0.20;;;25.80;53.10;;;;;;4233920;28;20058;-58
2021/08/20 01:56:53;;;;;;;0.20;0.20;;;25.90;53.30;;;;;;4233990;28;20055;-57
2021/08/20 01:58:56;;;;;;;0.10;0.10;;;25.80;53.10;;;;;;4233882;28;20048;-57
2021/08/20 02:01:02;;;;;;;0.10;0.10;;;25.80;53.10;;;;;;4233774;28;20048;-57
2021/08/20 02:03:04;;;;;;;0.20;0.20;;;25.80;53.20;;;;;;4232711;28;20072;-57
2021/08/20 02:05:07;;;;;;;0.52;0.10;;;25.80;53.30;;;;;;4233780;28;20051;-57
2021/08/20 02:07:09;;;;;;;0.10;0.10;;;25.80;53.20;;;;;;4233687;28;20074;-57
2021/08/20 02:09:11;;;;;;;0.10;0.10;;;25.80;53.30;;;;;;4233799;28;20044;-57
2021/08/20 02:11:13;;;;;;;0.20;0.20;;;25.80;53.30;;;;;;4233655;28;20048;-57
2021/08/20 02:13:15;;;;;;;0.10;0.10;;;25.80;53.30;;;;;;4233639;28;20040;-57
2021/08/20 02:15:17;;;;;;;0.10;0.10;;;25.80;53.30;;;;;;4233325;28;20070;-57
2021/08/20 02:17:18;;;;;;;0.10;0.10;;;25.80;53.40;;;;;;4233416;28;20044;-57
2021/08/20 02:19:20;;;;;;;0.10;0.10;;;25.80;53.30;;;;;;4233265;28;20048;-57
2021/08/20 02:21:23;;;;;;;0.20;0.20;;;25.80;53.30;;;;;;4233371;28;20048;-57
2021/08/20 02:23:24;;;;;;;0.20;0.20;;;25.90;53.30;;;;;;4233173;28;20043;-57
2021/08/20 02:25:26;;;;;;;0.22;0.20;;;25.80;53.30;;;;;;4233051;28;20044;-57
2021/08/20 02:27:28;;;;;;;0.10;0.10;;;25.80;53.40;;;;;;4233265;28;20044;-57
2021/08/20 02:29:30;;;;;;;0.30;0.10;;;25.80;53.40;;;;;;4233257;28;20070;-57
2021/08/20 02:31:32;;;;;;;0.10;0.10;;;25.80;53.50;;;;;;4232741;28;20096;-57
2021/08/20 02:33:34;;;;;;;0.10;0.10;;;25.80;53.40;;;;;;4233143;28;20044;-57
2021/08/20 02:35:36;;;;;;;0.20;0.20;;;25.80;53.50;;;;;;4233193;28;20058;-57
2021/08/20 02:37:38;;;;;;;0.10;0.10;;;25.80;53.40;;;;;;4233137;28;20051;-57
2021/08/20 02:39:40;;;;;;;0.10;0.10;;;25.80;53.60;;;;;;4232988;28;20044;-57
2021/08/20 02:41:43;;;;;;;0.10;0.10;;;25.80;53.40;;;;;;4233041;28;20051;-57
2021/08/20 02:43:44;;;;;;;0.10;0.10;;;25.80;53.60;;;;;;4233023;28;20044;-57
2021/08/20 02:45:46;;;;;;;0.10;0.10;;;25.80;53.60;;;;;;4233021;28;20073;-57
2021/08/20 02:47:48;;;;;;;0.10;0.10;;;25.80;53.50;;;;;;4232671;28;20047;-57
2021/08/20 02:49:50;;;;;;;0.20;0.20;;;25.80;53.60;;;;;;4233004;28;20044;-57
2021/08/20 02:51:52;;;;;;;0.10;0.10;;;25.70;53.60;;;;;;4232943;28;20052;-57
2021/08/20 02:53:54;;;;;;;0.10;0.10;;;25.80;53.50;;;;;;4232814;28;20069;-57
2021/08/20 02:55:56;;;;;;;0.10;0.10;;;25.70;53.40;;;;;;4232843;28;20055;-57
2021/08/20 02:57:58;;;;;;;0.10;0.10;;;25.80;53.40;;;;;;4232802;28;20048;-57
2021/08/20 03:00:00;;;;;;;0.10;0.10;;;25.80;53.50;;;;;;4232847;28;20048;-57
2021/08/20 03:02:03;;;;;;;0.10;0.10;;;25.70;53.60;;;;;;4232680;28;20044;-57
2021/08/20 03:04:05;;;;;;;0.10;0.10;;;25.80;53.60;;;;;;4232456;28;20083;-57
2021/08/20 03:06:07;;;;;;;0.10;0.10;;;25.80;53.50;;;;;;4232655;28;20048;-57
2021/08/20 03:08:09;;;;;;;0.10;0.10;;;25.70;53.50;;;;;;4232592;28;20073;-57
2021/08/20 03:10:11;;;;;;;0.10;0.10;;;25.80;53.50;;;;;;4232613;28;20052;-57
2021/08/20 03:12:13;;;;;;;0.10;0.10;;;25.80;53.50;;;;;;4232785;28;20052;-56
2021/08/20 03:14:16;;;;;;;0.10;0.10;;;25.80;53.50;;;;;;4232463;28;20048;-56
2021/08/20 03:16:18;;;;;;;2.13;0.10;;;25.80;53.50;;;;;;4232659;28;20062;-57
2021/08/20 03:18:20;;;;;;;0.20;0.20;;;25.80;53.60;;;;;;4232346;28;20071;-57
2021/08/20 03:20:22;;;;;;;0.20;0.20;;;25.80;53.50;;;;;;4232643;28;20074;-57
2021/08/20 03:22:24;;;;;;;0.15;0.15;;;25.80;53.60;;;;;;4232534;28;20048;-55
2021/08/20 03:24:26;;;;;;;1.98;0.20;;;25.70;53.60;;;;;;4232547;28;20044;-56
2021/08/20 03:26:28;;;;;;;0.10;0.10;;;25.70;53.50;;;;;;4232697;28;20044;-57
2021/08/20 03:28:30;;;;;;;0.20;0.20;;;25.70;53.60;;;;;;4232511;28;20044;-57
2021/08/20 03:30:33;;;;;;;0.17;0.17;;;25.80;53.60;;;;;;4232648;28;20044;-57
2021/08/20 03:32:35;;;;;;;0.10;0.10;;;25.70;53.50;;;;;;4232479;28;20048;-57
2021/08/20 03:34:37;;;;;;;0.20;0.20;;;25.80;53.60;;;;;;4232411;28;20054;-57
2021/08/20 03:36:39;;;;;;;0.10;0.10;;;25.80;53.60;;;;;;4232576;28;20040;-57
2021/08/20 03:38:41;;;;;;;0.10;0.10;;;25.70;53.70;;;;;;4232579;28;20056;-57
2021/08/20 03:40:45;;;;;;;0.10;0.10;;;25.70;53.60;;;;;;4232591;28;20052;-57
2021/08/20 03:42:47;;;;;;;3.05;0.20;;;25.80;53.70;;;;;;4232446;28;20048;-57
2021/08/20 03:44:50;;;;;;;2.00;0.10;;;25.70;53.70;;;;;;4232436;28;20044;-57
2021/08/20 03:46:52;;;;;;;0.20;0.20;;;25.70;53.70;;;;;;4232377;28;20044;-57
2021/08/20 03:48:54;;;;;;;0.10;0.10;;;25.70;53.70;;;;;;4232479;28;20044;-57
2021/08/20 03:50:56;;;;;;;0.10;0.10;;;25.70;53.80;;;;;;4232305;28;20044;-57
2021/08/20 03:52:58;;;;;;;0.10;0.10;;;25.70;53.60;;;;;;4232329;28;20056;-57
2021/08/20 03:55:00;;;;;;;0.45;0.10;;;25.80;53.80;;;;;;4232279;28;20052;-56
2021/08/20 03:57:02;;;;;;;0.10;0.10;;;25.70;53.80;;;;;;4232314;28;20048;-57
2021/08/20 03:59:04;;;;;;;0.10;0.10;;;25.70;53.70;;;;;;4232254;28;20074;-57
2021/08/20 04:01:09;;;;;;;0.10;0.10;;;25.70;53.70;;;;;;4232317;28;20048;-56
2021/08/20 04:03:11;;;;;;;0.20;0.20;;;25.80;53.70;;;;;;4232111;28;20051;-56
2021/08/20 04:05:13;;;;;;;0.10;0.10;;;25.70;53.70;;;;;;4232347;28;20044;-56
2021/08/20 04:07:19;;;;;;;0.10;0.10;;;25.70;53.80;;;;;;4232191;28;20048;-56
2021/08/20 04:09:21;;;;;;;0.20;0.20;;;25.70;53.70;;;;;;4231989;28;20044;-55
2021/08/20 04:11:23;;;;;;;0.20;0.20;;;25.70;53.70;;;;;;4232307;28;20051;-55
2021/08/20 04:13:25;;;;;;;0.10;0.10;;;25.80;53.80;;;;;;4232122;28;20052;-57
2021/08/20 04:15:27;;;;;;;0.10;0.10;;;25.70;53.70;;;;;;4214622;28;20049;-56
2021/08/20 04:17:29;;;;;;;0.10;0.10;;;25.70;53.80;;;;;;4232446;28;20074;-56
2021/08/20 04:19:31;;;;;;;0.17;0.17;;;25.70;53.80;;;;;;4232131;28;20125;-57
2021/08/20 04:21:33;;;;;;;0.10;0.10;;;25.80;53.80;;;;;;4232284;28;20048;-56
2021/08/20 04:23:35;;;;;;;0.10;0.10;;;25.80;53.80;;;;;;4232165;28;20044;-56
2021/08/20 04:25:38;;;;;;;0.10;0.10;;;25.70;53.90;;;;;;4232344;28;20104;-57
2021/08/20 04:27:40;;;;;;;0.10;0.10;;;25.70;53.90;;;;;;4235006;28;20044;-57
2021/08/20 04:29:42;;;;;;;0.10;0.10;;;25.70;53.90;;;;;;4234876;28;20040;-56
2021/08/20 04:31:44;;;;;;;0.17;0.10;;;25.70;53.90;;;;;;4235194;28;20056;-57
2021/08/20 04:33:46;;;;;;;0.20;0.20;;;25.70;53.90;;;;;;4235255;28;20048;-56
2021/08/20 04:35:48;;;;;;;0.10;0.10;;;25.70;54.00;;;;;;4235072;28;20078;-56
2021/08/20 04:37:50;;;;;;;0.15;0.15;;;25.70;54.00;;;;;;4235120;28;20081;-57
2021/08/20 04:39:52;;;;;;;1.90;0.10;;;25.70;54.00;;;;;;4235089;28;20093;-57
2021/08/20 04:41:55;;;;;;;0.80;0.15;;;25.80;53.90;;;;;;4235019;28;20047;-57
2021/08/20 04:43:57;;;;;;;0.10;0.10;;;25.70;54.00;;;;;;4235062;28;20423;-57
2021/08/20 04:45:59;;;;;;;0.10;0.10;;;25.70;53.90;;;;;;4235051;28;20044;-56
2021/08/20 04:48:01;;;;;;;0.10;0.10;;;25.70;53.90;;;;;;4235050;28;20044;-56
2021/08/20 04:50:04;;;;;;;0.10;0.10;;;25.70;54.00;;;;;;4234927;28;20048;-56
2021/08/20 04:52:06;;;;;;;0.10;0.10;;;25.70;54.00;;;;;;4234821;28;20078;-56
2021/08/20 04:54:09;;;;;;;1.95;0.20;;;25.70;54.10;;;;;;4234881;28;20078;-56
2021/08/20 04:56:10;;;;;;;0.20;0.20;;;25.70;54.10;;;;;;4234742;28;20044;-56
2021/08/20 04:58:12;;;;;;;10.35;5.40;;;25.70;54.10;;;;;;4234591;28;20044;-54
2021/08/20 05:00:14;;;;;;;18.05;8.15;;;25.60;51.20;;;;;;4234765;28;20069;-55
2021/08/20 05:02:17;;;;;;;14.93;8.02;;;25.40;48.70;;;;;;4234675;28;20070;-56
2021/08/20 05:04:19;;;;;;;15.75;8.27;;;25.30;48.50;;;;;;4234483;28;20044;-56
2021/08/20 05:06:21;;;;;;;15.80;7.97;;;25.30;48.40;;;;;;4234387;28;20040;-56
2021/08/20 05:08:23;;;;;;;15.63;7.75;;;25.20;49.00;;;;;;4234644;28;20052;-53
2021/08/20 05:10:29;;;;;;;13.07;7.80;;;25.20;49.10;;;;;;4234459;28;20048;-56
2021/08/20 05:12:31;;;;;;;15.15;8.40;;;25.20;49.30;;;;;;4234586;28;20059;-55
2021/08/20 05:14:33;;;;;;;15.10;7.30;;;25.10;49.90;;;;;;4234395;28;20044;-56
2021/08/20 05:16:35;;;;;;;13.00;6.53;;;25.10;49.80;;;;;;4234442;28;20082;-54
2021/08/20 05:18:37;;;;;;;12.48;6.57;;;25.10;50.10;;;;;;4234204;28;20084;-47
2021/08/20 05:20:39;;;;;;;13.43;5.28;;;25.10;50.10;;;;;;4234517;28;20048;-48
2021/08/20 05:22:52;;;;;;;11.63;6.22;;;25.10;50.30;;;;;;4234375;28;20044;-49
2021/08/20 05:24:55;;;;;;;23.88;7.85;;;25.20;50.10;;;;;;4234473;28;20040;-52
2021/08/20 05:26:57;;;;;;;20.38;7.10;;;25.10;49.90;;;;;;4234314;28;20056;-51
2021/08/20 05:28:59;;;;;;;22.88;7.63;;;25.10;49.60;;;;;;4234287;28;20040;-49
2021/08/20 05:31:01;;;;;;;27.65;8.05;;;25.00;49.50;;;;;;4234340;28;20048;-48
2021/08/20 05:33:04;;;;;;;22.52;8.55;;;24.90;49.40;;;;;;4234168;28;20044;-51
2021/08/20 05:35:08;;;;;;;24.35;8.30;;;24.90;49.50;;;;;;4234223;28;20052;-51
2021/08/20 05:37:10;;;;;;;23.67;7.97;;;24.90;49.70;;;;;;4234204;28;20056;-50
2021/08/20 05:39:11;;;;;;;28.98;9.50;;;24.90;49.90;;;;;;4234217;28;20058;-48
2021/08/20 05:41:14;;;;;;;16.55;8.73;;;24.90;49.90;;;;;;4234090;28;20074;-50
2021/08/20 05:43:16;;;;;;;23.85;10.32;;;24.80;49.80;;;;;;4233229;28;20048;-48
2021/08/20 05:45:18;;;;;;;32.60;10.90;;;24.80;50.10;;;;;;4234110;28;20048;-48
2021/08/20 05:47:20;;;;;;;31.45;10.95;;;24.80;50.20;;;;;;4233988;28;20045;-50
2021/08/20 05:49:22;;;;;;;32.30;10.20;;;24.80;50.20;;;;;;4234006;28;20044;-52
2021/08/20 05:51:25;;;;;;;28.55;11.15;;;24.80;50.10;;;;;;4233860;28;20082;-53
2021/08/20 05:53:27;;;;;;;49.28;18.13;;;24.80;50.30;;;;;;4233879;28;20044;-51
2021/08/20 05:55:31;;;;;;;55.17;18.52;;;24.80;50.40;;;;;;4233971;28;20044;-49
2021/08/20 05:57:33;;;;;;;42.40;16.10;;;24.80;50.20;;;;;;4233920;28;20045;-50
2021/08/20 05:59:35;;;;;;;43.53;15.30;;;24.80;50.30;;;;;;4233880;28;20093;-52
2021/08/20 06:01:41;;;;;;;35.10;14.25;;;24.70;50.50;;;;;;4233837;28;20048;-49
2021/08/20 06:03:44;;;;;;;43.00;14.88;;;24.80;50.40;;;;;;4233707;28;20055;-54
2021/08/20 06:05:46;;;;;;;33.70;13.65;;;24.70;50.30;;;;;;4233790;28;20068;-51
2021/08/20 06:07:48;;;;;;;34.75;13.40;;;24.70;50.40;;;;;;4233789;28;20044;-50
2021/08/20 06:09:49;;;;;;;29.65;12.23;;;24.80;50.60;;;;;;4233592;28;20043;-48
2021/08/20 06:11:51;;;;;;;30.77;10.52;;;24.70;50.40;;;;;;4233644;28;20069;-52
2021/08/20 06:13:54;;;;;;;43.92;13.25;;;24.70;50.50;;;;;;4233573;28;20054;-50
2021/08/20 06:15:56;;;;;;;43.25;13.43;;;24.70;50.70;;;;;;4233629;28;20074;-48
2021/08/20 06:17:58;;;;;;;55.53;14.70;;;24.70;50.80;;;;;;4233488;28;20074;-53
2021/08/20 06:20:01;;;;;;;34.03;14.27;;;24.70;50.90;;;;;;4233352;28;20060;-51
2021/08/20 06:22:03;;;;;;;31.58;14.10;;;24.70;50.90;;;;;;4233515;28;20097;-49
2021/08/20 06:24:05;;;;;;;43.22;13.52;;;24.80;50.90;;;;;;4233408;28;20048;-52
2021/08/20 06:26:07;;;;;;;44.50;15.88;;;24.70;50.80;;;;;;4233423;28;20047;-49
2021/08/20 06:28:09;;;;;;;49.53;15.77;;;24.70;50.80;;;;;;4233461;28;20078;-45
2021/08/20 06:30:11;;;;;;;25.25;10.65;;;24.70;50.70;;;;;;4233269;28;20043;-47
2021/08/20 06:32:13;;;;;;;44.72;12.23;;;24.80;50.20;;;;;;4233286;28;20050;-51
2021/08/20 06:34:16;;;;;;;35.53;12.93;;;24.80;50.70;;;;;;4233262;28;20052;-51
2021/08/20 06:36:18;;;;;;;38.92;11.85;;;24.80;50.70;;;;;;4233225;28;20052;-45
2021/08/20 06:38:20;;;;;;;47.05;15.02;;;24.90;50.80;;;;;;4233340;28;20074;-44
2021/08/20 06:40:22;;;;;;;46.42;16.10;;;24.90;50.90;;;;;;4233263;28;20377;-44
2021/08/20 06:42:24;;;;;;;52.63;19.10;;;24.90;51.00;;;;;;4233162;28;20048;-44
2021/08/20 06:44:27;;;;;;;49.45;19.42;;;24.90;51.40;;;;;;4233153;28;20048;-44
2021/08/20 06:46:29;;;;;;;50.50;18.15;;;24.90;51.30;;;;;;4233215;28;20492;-44
2021/08/20 06:48:31;;;;;;;46.50;18.40;;;24.90;51.30;;;;;;4232986;28;20048;-44
2021/08/20 06:50:33;;;;;;;47.15;18.50;;;24.90;51.20;;;;;;4232910;28;20048;-45
2021/08/20 06:52:36;;;;;;;46.85;17.77;;;24.90;51.40;;;;;;4233051;28;20051;-44
2021/08/20 06:54:38;;;;;;;52.60;17.45;;;24.90;51.50;;;;;;4233107;28;20040;-47
2021/08/20 06:56:40;;;;;;;59.05;19.75;;;24.90;51.50;;;;;;4233145;28;20073;-45
2021/08/20 06:58:42;;;;;;;49.55;17.65;;;24.90;51.60;;;;;;4232993;28;20054;-44
2021/08/20 07:00:44;;;;;;;49.15;19.10;;;24.90;51.60;;;;;;4232964;28;20041;-44
2021/08/20 07:02:47;;;;;;;43.40;19.23;;;24.90;51.70;;;;;;4232881;28;20044;-45
2021/08/20 07:04:50;;;;;;;50.60;18.33;;;24.90;51.70;;;;;;4232917;28;20044;-44
2021/08/20 07:06:55;;;;;;;44.85;17.58;;;24.90;51.70;;;;;;4232995;28;20050;-45
2021/08/20 07:08:57;;;;;;;40.72;16.42;;;24.90;51.60;;;;;;4232901;28;20044;-44
2021/08/20 07:10:59;;;;;;;41.85;17.58;;;24.90;51.90;;;;;;4232812;28;20107;-44
2021/08/20 07:13:01;;;;;;;45.83;17.48;;;24.90;52.00;;;;;;4232918;28;20078;-46
2021/08/20 07:15:04;;;;;;;45.85;17.67;;;25.00;51.60;;;;;;4232910;28;20442;-46
2021/08/20 07:17:06;;;;;;;42.60;16.73;;;24.90;52.00;;;;;;4232828;28;20048;-47
2021/08/20 07:19:08;;;;;;;39.90;15.63;;;24.90;51.80;;;;;;4232685;28;20052;-44
2021/08/20 07:21:10;;;;;;;41.45;16.95;;;24.90;51.80;;;;;;4232718;28;20451;-45
2021/08/20 07:23:12;;;;;;;39.03;16.20;;;24.90;51.90;;;;;;4232727;28;20044;-45
2021/08/20 07:25:14;;;;;;;39.60;16.52;;;24.90;52.00;;;;;;4232726;28;20070;-44
2021/08/20 07:27:17;;;;;;;37.13;16.77;;;25.00;52.00;;;;;;4232774;28;20485;-44
2021/08/20 07:29:19;;;;;;;36.97;16.45;;;25.00;52.00;;;;;;4232771;28;20070;-44
2021/08/20 07:31:21;;;;;;;37.22;15.65;;;24.90;52.10;;;;;;4232745;28;20055;-44
2021/08/20 07:33:23;;;;;;;38.83;15.05;;;24.90;51.90;;;;;;4232702;28;20056;-44
2021/08/20 07:35:25;;;;;;;40.50;15.38;;;24.90;52.10;;;;;;4232742;28;20055;-45
2021/08/20 07:37:27;;;;;;;34.63;15.02;;;24.90;52.30;;;;;;4232650;28;20047;-45
2021/08/20 07:39:30;;;;;;;33.33;16.45;;;25.00;52.00;;;;;;4232633;28;20048;-45
2021/08/20 07:41:32;;;;;;;39.28;15.88;;;24.90;52.40;;;;;;4232656;28;20129;-48
2021/08/20 07:43:34;;;;;;;32.72;13.40;;;24.90;52.20;;;;;;4232585;28;20044;-44
2021/08/20 07:45:36;;;;;;;35.30;14.23;;;24.90;52.00;;;;;;4232585;28;20063;-44
2021/08/20 07:47:50;;;;;;;39.40;13.98;;;24.90;52.00;;;;;;4232562;28;20044;-45
2021/08/20 07:49:53;;;;;;;28.65;14.10;;;25.00;51.70;;;;;;4232697;28;20071;-45
2021/08/20 07:51:56;;;;;;;37.15;16.23;;;24.90;52.60;;;;;;4232516;28;20079;-45
2021/08/20 07:53:58;;;;;;;32.15;14.63;;;24.90;52.70;;;;;;4232579;28;20073;-44
2021/08/20 07:56:00;;;;;;;34.13;14.50;;;24.90;52.20;;;;;;4232554;28;20048;-48
2021/08/20 07:58:02;;;;;;;33.08;13.73;;;24.90;52.60;;;;;;4232653;28;20073;-46
2021/08/20 08:00:05;;;;;;;35.92;14.27;;;24.90;52.70;;;;;;4232471;28;20108;-46
2021/08/20 08:02:07;;;;;;;33.15;13.15;;;24.90;52.30;;;;;;4234643;28;20060;-45
2021/08/20 08:04:09;;;;;;;29.33;14.27;;;24.90;52.50;;;;;;4235612;28;20130;-45
2021/08/20 08:06:12;;;;;;;28.98;13.75;;;24.90;52.80;;;;;;4235695;28;20050;-46
2021/08/20 08:08:14;;;;;;;30.27;14.38;;;24.90;52.60;;;;;;4235662;28;20040;-44
2021/08/20 08:10:17;;;;;;;27.05;14.02;;;25.00;52.60;;;;;;4235658;28;20055;-46
2021/08/20 08:12:19;;;;;;;32.30;14.15;;;25.00;52.60;;;;;;4235632;28;20040;-46
2021/08/20 08:14:21;;;;;;;29.92;14.27;;;24.90;52.70;;;;;;4235505;28;20065;-46
2021/08/20 08:16:23;;;;;;;27.00;12.50;;;24.90;52.60;;;;;;4235697;28;20048;-46
2021/08/20 08:18:25;;;;;;;28.58;13.23;;;24.90;52.60;;;;;;4235360;28;20047;-46
2021/08/20 08:20:27;;;;;;;27.33;13.05;;;25.00;52.40;;;;;;4235527;28;20060;-45
2021/08/20 08:22:29;;;;;;;29.55;12.75;;;24.90;52.60;;;;;;4235347;28;20428;-45
2021/08/20 08:24:31;;;;;;;26.95;12.50;;;24.90;52.60;;;;;;4235387;28;20052;-47
2021/08/20 08:26:33;;;;;;;23.38;12.27;;;24.90;52.40;;;;;;4235284;28;20044;-48
2021/08/20 08:28:35;;;;;;;26.15;12.23;;;24.90;52.70;;;;;;4235373;28;20055;-44
2021/08/20 08:30:40;;;;;;;28.35;12.02;;;24.90;52.60;;;;;;4235325;28;20126;-46
2021/08/20 08:32:42;;;;;;;22.27;11.10;;;24.90;52.80;;;;;;4235335;28;20044;-46
2021/08/20 08:34:44;;;;;;;24.05;10.75;;;24.90;51.90;;;;;;4235238;28;20048;-45
2021/08/20 08:36:46;;;;;;;25.92;11.27;;;24.90;51.40;;;;;;4235249;28;20058;-47
2021/08/20 08:38:48;;;;;;;24.10;11.30;;;24.90;52.30;;;;;;4235265;28;20470;-45
2021/08/20 08:40:50;;;;;;;26.05;11.77;;;25.00;52.50;;;;;;4235164;28;20056;-44
2021/08/20 08:42:53;;;;;;;19.85;10.43;;;24.90;52.20;;;;;;4235100;28;20048;-45
2021/08/20 08:44:56;;;;;;;21.05;10.57;;;24.90;52.40;;;;;;4235048;28;20051;-47
2021/08/20 08:46:59;;;;;;;17.75;10.25;;;24.90;52.30;;;;;;4235026;28;20070;-43
2021/08/20 08:49:01;;;;;;;21.92;9.77;;;24.90;52.20;;;;;;4235032;28;20048;-44
2021/08/20 08:51:07;;;;;;;22.50;11.25;;;25.00;52.30;;;;;;4235040;28;20043;-45
2021/08/20 08:53:09;;;;;;;24.33;10.57;;;24.90;52.60;;;;;;4235010;28;20048;-47
2021/08/20 08:55:31;;;;;;;19.40;10.98;;;25.00;52.40;;;;;;4234959;28;20052;-45
2021/08/20 08:57:33;;;;;;;21.15;11.50;;;25.00;52.50;;;;;;4234943;28;20097;-44
2021/08/20 08:59:35;;;;;;;22.30;10.52;;;25.00;52.20;;;;;;4234900;28;20044;-47
2021/08/20 09:01:40;;;;;;;21.70;11.68;;;25.00;52.50;;;;;;4234833;28;20078;-44
2021/08/20 09:03:42;;;;;;;19.85;11.23;;;24.90;52.00;;;;;;4234733;28;20044;-44
2021/08/20 09:05:46;;;;;;;24.75;11.00;;;24.90;52.40;;;;;;4234682;28;20075;-48
2021/08/20 09:07:52;;;;;;;18.40;10.80;;;24.90;52.40;;;;;;4234777;28;20104;-50
2021/08/20 09:10:21;;;;;;;22.30;10.50;;;24.90;52.30;;;;;;4234717;28;20100;-44
2021/08/20 09:12:27;;;;;;;23.58;10.57;;;24.90;52.30;;;;;;4234356;28;20044;-48
2021/08/20 09:14:35;;;;;;;24.20;10.57;;;25.00;52.40;;;;;;4234669;28;20074;-47
2021/08/20 09:16:41;;;;;;;20.20;10.43;;;24.90;52.20;;;;;;4234584;28;20055;-49
2021/08/20 09:18:44;;;;;;;21.75;10.77;;;24.90;52.60;;;;;;4234508;28;20056;-46
2021/08/20 09:20:46;;;;;;;22.77;10.85;;;25.00;52.70;;;;;;4234532;28;20048;-47
2021/08/20 09:22:50;;;;;;;21.65;9.82;;;24.90;52.00;;;;;;4234501;28;20050;-48
2021/08/20 09:24:52;;;;;;;21.25;10.30;;;25.00;52.40;;;;;;4234416;28;20050;-46
2021/08/20 09:26:54;;;;;;;18.00;9.90;;;25.00;52.40;;;;;;4234469;28;20044;-44
2021/08/20 09:29:11;;;;;;;17.23;9.02;;;24.90;52.40;;;;;;4234425;28;20099;-46
2021/08/20 09:31:13;;;;;;;18.48;9.85;;;24.90;52.10;;;;;;4234400;28;20047;-45
2021/08/20 09:33:16;;;;;;;18.95;10.02;;;25.00;52.50;;;;;;4234350;28;20068;-52
2021/08/20 09:35:19;;;;;;;16.30;9.32;;;25.00;52.40;;;;;;4234241;28;20077;-45
2021/08/20 09:37:21;;;;;;;19.20;8.85;;;24.90;52.40;;;;;;4234243;28;20056;-44
2021/08/20 09:39:26;;;;;;;14.85;8.55;;;25.00;52.30;;;;;;4234274;28;20051;-45
2021/08/20 09:41:44;;;;;;;16.83;9.13;;;25.00;52.50;;;;;;4234184;28;20048;-45
2021/08/20 09:43:48;;;;;;;13.80;8.93;;;25.00;52.40;;;;;;4234114;28;20048;-45
2021/08/20 09:46:07;;;;;;;17.25;9.50;;;25.00;52.60;;;;;;4234059;28;20067;-45
2021/08/20 09:48:09;;;;;;;16.50;8.48;;;24.90;52.10;;;;;;4233923;28;20059;-46
2021/08/20 09:50:12;;;;;;;16.90;8.70;;;24.90;52.50;;;;;;4233975;28;20040;-45
2021/08/20 09:52:28;;;;;;;16.25;8.82;;;25.00;52.30;;;;;;4234012;28;20044;-50
2021/08/20 09:54:40;;;;;;;14.93;8.68;;;25.00;52.50;;;;;;4233943;28;20141;-46
2021/08/20 09:56:43;;;;;;;13.55;8.30;;;24.90;52.30;;;;;;4233941;28;20048;-44
2021/08/20 09:58:47;;;;;;;15.15;8.65;;;24.90;52.10;;;;;;4233994;28;20059;-47
2021/08/20 10:00:51;;;;;;;18.30;8.93;;;25.00;52.10;;;;;;4233892;28;20048;-44
2021/08/20 10:02:53;;;;;;;16.65;8.27;;;25.00;52.10;;;;;;4233857;28;20047;-49
2021/08/20 10:04:58;;;;;;;14.68;9.02;;;24.90;52.10;;;;;;4233680;28;20071;-44
2021/08/20 10:07:02;;;;;;;14.05;8.18;;;24.90;52.20;;;;;;4233783;28;20497;-46
2021/08/20 10:09:10;;;;;;;14.43;8.65;;;25.00;52.10;;;;;;4233786;28;20068;-47
2021/08/20 10:11:16;;;;;;;16.27;8.23;;;25.00;52.10;;;;;;4233749;28;20070;-50
2021/08/20 10:13:19;;;;;;;14.02;7.68;;;25.00;52.30;;;;;;4233624;28;20094;-45
2021/08/20 10:15:21;;;;;;;12.85;7.90;;;25.00;52.30;;;;;;4233648;28;20115;-48
2021/08/20 10:17:24;;;;;;;12.52;7.82;;;24.90;52.20;;;;;;4233553;28;20048;-45
2021/08/20 10:19:28;;;;;;;13.10;8.32;;;25.00;52.20;;;;;;4233256;28;20060;-45
2021/08/20 10:21:31;;;;;;;14.27;8.10;;;25.00;52.40;;;;;;4233640;28;20073;-45
2021/08/20 10:23:35;;;;;;;11.77;7.20;;;25.00;52.30;;;;;;4233081;28;20044;-45
2021/08/20 10:25:38;;;;;;;13.05;8.13;;;25.00;52.30;;;;;;4233330;28;20048;-46
2021/08/20 10:27:41;;;;;;;20.13;9.23;;;24.90;52.30;;;;;;4233414;28;20040;-47
2021/08/20 10:29:47;;;;;;;13.85;7.68;;;25.00;52.30;;;;;;4233395;28;20040;-45
2021/08/20 10:31:50;;;;;;;12.95;8.32;;;25.00;52.20;;;;;;4233428;28;20044;-45